University Place, Washington
Current Conditions -  °F | °C
As of 6:53 PM on Saturday 22 Nov 2014 (Local Time) from KTIW Reporting Station
Scattered Clouds Scattered Clouds  
Wind Chill: 45°   Ceiling: Unl
Heat Index: 48°   Visibility: 10mi
Dew Point: 41°   Wind: 6mph
Humidity: 77%   Direction: 220°SW
Pressure: 30.05"   Gusts: NA
Location:  47.22°N, 122.53°W
Report Text: KTIW 230253Z 22005KT 10SM SCT120 09/05 A3005 RMK AO2 SLP176 T00890050 51034
Loading
Personal Weather Stations






























Interactive Weather Map New forecast layout! Learn more

10-Day Weather Forecast

Advertisements
Track Severe Weather on mobile